Philadelphia, Pennsylvania
Traffic Map
Current Weather Conditions
Philadelphia, Pennsylvania
Clear
Clear

Feels Like: -1°
Wind Chill: -1° Ceiling: Unl
Heat Index: Visibility: 10mi
Dew Point: -8° Wind: 9mph
Humidity: 44% Direction: 40° (NE)
Pressure: 30.61in Gusts: 0mph
Raw Report DataKPHL 170854Z 04008KT 10SM CLR 03/M08 A3061 RMK AO2 SLP364 T00281083 53005 $
Traffic Incident Summary
Active as of:
Severity:
Category:
InformationThere was an issue retrieving the traffic information for this location. Please try a different location or try again shortly.
Advertisements
At Last! Intellicast now available for iPhone and Android